Cleveland, Ohio
Current Conditions -  °F | °C
As of 11:51 AM on Thursday 30 Oct 2014 (Local Time) from KCLE Reporting Station
Broken Clouds Broken Clouds  
Wind Chill:   Ceiling: 4500
Heat Index:   Visibility: 10mi
Dew Point:   Wind: 7mph
Humidity: 66%   Direction: 320°NW
Pressure: 30.15"   Gusts: NA
Location:  41.5°N, 81.69°W
Report Text: KCLE 301551Z 32006KT 10SM SCT028 BKN045 BKN250 09/03 A3015 RMK AO2 SLP215 T00890028 $
Loading
Personal Weather Stations






























Interactive Weather Map
Tropical Storm Tracking
New forecast layout! Learn more

10-Day Weather Forecast

Advertisements
Track Severe Weather on mobile